Time;durP1;ratioP1;P1;durP2;ratioP2;P2;SDS_P1;SDS_P2;PMS_P1;PMS_P2;Temp;Humidity;BMP_temperature;BMP_pressure;BME280_temperature;BME280_humidity;BME280_pressure;Samples;Min_cycle;Max_cycle;Signal;HPM_P1;HPM_P2
2022/06/29 00:01:56;;;;;;;4.22;2.13;;;17.50;63.10;;;;;;5025737;28;20465;-74
2022/06/29 00:04:22;;;;;;;4.55;2.53;;;17.30;63.50;;;;;;5044292;28;20028;-74
2022/06/29 00:06:48;;;;;;;4.32;1.90;;;17.40;63.00;;;;;;5027162;28;20026;-74
2022/06/29 00:09:13;;;;;;;3.78;1.88;;;17.40;65.20;;;;;;5061669;28;20029;-73
2022/06/29 00:11:39;;;;;;;3.88;2.13;;;17.50;62.60;;;;;;5029905;28;20095;-73
2022/06/29 00:14:04;;;;;;;8.50;2.38;;;17.50;61.90;;;;;;5045689;28;20025;-74
2022/06/29 00:16:30;;;;;;;4.40;2.35;;;17.50;62.40;;;;;;5021926;28;20045;-75
2022/06/29 00:18:55;;;;;;;4.13;2.13;;;17.20;63.10;;;;;;5042570;28;20044;-76
2022/06/29 00:21:21;;;;;;;9.27;2.25;;;17.00;65.40;;;;;;5061016;28;20082;-74
2022/06/29 00:23:46;;;;;;;6.25;2.47;;;16.90;67.50;;;;;;5041933;28;20025;-74
2022/06/29 00:26:12;;;;;;;5.28;1.92;;;17.00;65.60;;;;;;5045453;28;20049;-75
2022/06/29 00:28:37;;;;;;;3.10;1.52;;;17.20;63.80;;;;;;5037795;28;20039;-73
2022/06/29 00:31:03;;;;;;;4.45;2.03;;;17.30;63.00;;;;;;5042432;28;20029;-74
2022/06/29 00:33:29;;;;;;;3.70;1.73;;;17.30;62.50;;;;;;5044422;28;20048;-74
2022/06/29 00:35:54;;;;;;;2.40;2.20;;;17.20;62.50;;;;;;5010824;28;20025;-75
2022/06/29 00:38:20;;;;;;;3.55;1.65;;;17.20;62.40;;;;;;5026020;28;20036;-73
2022/06/29 00:40:45;;;;;;;5.30;1.85;;;17.10;62.30;;;;;;5039557;28;20101;-74
2022/06/29 00:43:11;;;;;;;3.13;1.90;;;17.00;62.50;;;;;;5041909;28;20117;-73
2022/06/29 00:45:37;;;;;;;4.60;2.40;;;17.00;62.30;;;;;;5061977;28;20025;-74
2022/06/29 00:48:03;;;;;;;3.67;2.25;;;16.80;63.20;;;;;;5027316;28;20622;-74
2022/06/29 00:50:30;;;;;;;3.50;2.38;;;16.60;64.20;;;;;;5044504;28;20072;-74
2022/06/29 00:52:57;;;;;;;5.07;2.60;;;16.60;64.30;;;;;;5029140;28;20060;-73
2022/06/29 00:55:22;;;;;;;2.40;1.65;;;16.50;64.20;;;;;;5060145;28;20403;-73
2022/06/29 00:57:48;;;;;;;6.18;2.33;;;16.70;64.20;;;;;;5025799;28;20032;-73
2022/06/29 01:00:14;;;;;;;6.82;2.40;;;16.70;63.90;;;;;;5060849;28;20485;-73
2022/06/29 01:02:40;;;;;;;4.13;2.38;;;16.60;66.10;;;;;;5024160;28;20120;-73
2022/06/29 01:05:06;;;;;;;3.67;2.05;;;16.40;65.00;;;;;;5043969;28;20175;-74
2022/06/29 01:07:32;;;;;;;5.38;2.67;;;16.40;66.00;;;;;;5057845;28;20373;-75
2022/06/29 01:09:58;;;;;;;8.30;2.42;;;16.30;66.10;;;;;;5024632;28;20496;-74
2022/06/29 01:12:24;;;;;;;5.78;2.47;;;16.10;66.80;;;;;;5044753;28;20025;-74
2022/06/29 01:14:50;;;;;;;6.80;2.63;;;16.00;67.20;;;;;;5009465;28;20029;-74
2022/06/29 01:17:16;;;;;;;3.10;2.42;;;16.00;69.00;;;;;;5044957;28;20086;-73
2022/06/29 01:19:42;;;;;;;2.85;2.25;;;16.00;69.40;;;;;;5043558;28;20456;-74
2022/06/29 01:22:18;;;;;;;3.13;2.25;;;16.00;69.50;;;;;;5028823;28;20055;-75
2022/06/29 01:24:44;;;;;;;3.55;2.17;;;16.10;68.70;;;;;;5044054;28;20029;-75
2022/06/29 01:27:10;;;;;;;2.63;2.10;;;16.20;68.50;;;;;;5045694;28;20044;-75
2022/06/29 01:29:36;;;;;;;3.55;2.60;;;16.30;67.30;;;;;;5028900;28;20026;-74
2022/06/29 01:32:02;;;;;;;4.13;2.17;;;16.30;67.10;;;;;;5015700;28;20377;-74
2022/06/29 01:34:28;;;;;;;4.95;2.55;;;16.30;66.20;;;;;;5041320;28;20037;-74
2022/06/29 01:36:54;;;;;;;4.68;2.22;;;16.20;66.70;;;;;;5025194;28;20029;-75
2022/06/29 01:39:19;;;;;;;5.47;2.63;;;16.10;68.20;;;;;;5045297;28;20083;-74
2022/06/29 01:41:45;;;;;;;6.00;2.50;;;16.10;68.80;;;;;;5044339;28;20136;-75
2022/06/29 01:44:10;;;;;;;3.53;2.50;;;16.00;69.30;;;;;;5062832;28;20045;-74
2022/06/29 01:46:36;;;;;;;2.80;2.50;;;16.00;70.50;;;;;;5043378;28;20401;-74
2022/06/29 01:49:02;;;;;;;3.35;2.30;;;15.90;70.90;;;;;;5028490;28;20036;-74
2022/06/29 01:51:27;;;;;;;4.97;2.40;;;16.00;70.30;;;;;;5028703;28;20045;-74
2022/06/29 01:53:53;;;;;;;6.05;2.67;;;15.90;71.20;;;;;;5011773;28;20064;-74
2022/06/29 01:56:18;;;;;;;4.63;2.30;;;15.90;70.30;;;;;;5045875;28;20573;-74
2022/06/29 01:58:45;;;;;;;4.05;2.17;;;15.90;70.70;;;;;;5060664;28;20105;-74
2022/06/29 02:01:10;;;;;;;4.18;2.50;;;16.00;70.40;;;;;;5062370;28;20048;-73
2022/06/29 02:03:38;;;;;;;3.28;2.22;;;16.00;69.20;;;;;;5041306;28;20025;-74
2022/06/29 02:06:04;;;;;;;3.60;2.33;;;16.10;68.40;;;;;;5040659;28;20095;-74
2022/06/29 02:08:30;;;;;;;7.95;2.55;;;15.90;70.70;;;;;;5042186;28;20036;-74
2022/06/29 02:10:55;;;;;;;4.50;2.60;;;15.70;71.40;;;;;;5025024;28;20032;-73
2022/06/29 02:13:21;;;;;;;3.90;2.33;;;15.70;72.90;;;;;;5041576;28;20067;-73
2022/06/29 02:15:46;;;;;;;5.30;2.35;;;15.60;73.10;;;;;;5040706;28;20453;-74
2022/06/29 02:18:12;;;;;;;5.35;2.83;;;15.70;72.50;;;;;;5010367;28;20041;-73
2022/06/29 02:20:37;;;;;;;5.88;2.80;;;15.60;73.60;;;;;;5059914;28;20523;-76
2022/06/29 02:23:03;;;;;;;4.65;2.30;;;15.70;74.00;;;;;;5028356;28;20112;-76
2022/06/29 02:25:28;;;;;;;5.10;3.03;;;15.70;73.00;;;;;;5043389;28;20043;-72
2022/06/29 02:27:54;;;;;;;3.58;2.50;;;15.80;75.10;;;;;;5038719;28;20029;-74
2022/06/29 02:34:43;;;;;;;6.70;2.90;;;15.70;73.00;;;;;;5059497;28;20104;-74
2022/06/29 02:35:49;;;;;;;3.80;2.70;;;15.70;73.40;;;;;;5054965;28;20475;-73
2022/06/29 02:38:15;;;;;;;3.28;2.70;;;15.60;74.70;;;;;;5026264;28;20033;-75
2022/06/29 02:40:40;;;;;;;5.15;2.67;;;15.60;75.30;;;;;;5026566;28;20044;-74
2022/06/29 02:43:06;;;;;;;4.22;2.65;;;15.70;76.40;;;;;;5060032;28;20036;-75
2022/06/29 02:45:31;;;;;;;6.20;2.67;;;15.60;75.00;;;;;;5039488;28;20043;-74
2022/06/29 02:47:57;;;;;;;5.55;2.35;;;15.70;74.00;;;;;;5025997;28;20029;-79
2022/06/29 02:50:22;;;;;;;3.53;2.40;;;15.70;75.30;;;;;;5042525;28;20495;-78
2022/06/29 02:52:48;;;;;;;6.22;2.70;;;15.80;74.60;;;;;;5008356;28;20504;-79
2022/06/29 02:55:14;;;;;;;5.90;2.67;;;15.70;73.90;;;;;;5059745;28;20032;-79
2022/06/29 02:57:39;;;;;;;3.47;2.40;;;15.70;74.80;;;;;;5025094;28;20060;-79
2022/06/29 03:00:05;;;;;;;3.17;2.65;;;15.70;75.90;;;;;;5043374;28;20492;-79
2022/06/29 03:02:31;;;;;;;3.60;2.70;;;15.70;75.00;;;;;;5026840;28;20115;-73
2022/06/29 03:04:56;;;;;;;4.75;2.75;;;15.70;75.60;;;;;;5042494;28;20563;-74
2022/06/29 03:07:22;;;;;;;4.72;2.72;;;15.70;76.10;;;;;;5022350;28;20691;-73
2022/06/29 03:09:48;;;;;;;3.67;2.70;;;15.70;76.10;;;;;;5040302;28;20022;-73
2022/06/29 03:12:13;;;;;;;6.53;2.83;;;15.70;77.20;;;;;;5059074;28;20033;-75
2022/06/29 03:14:39;;;;;;;10.10;2.97;;;15.60;77.60;;;;;;5023719;28;20040;-75
2022/06/29 03:17:04;;;;;;;4.65;2.70;;;15.60;77.70;;;;;;5059903;28;20029;-74
2022/06/29 03:19:30;;;;;;;4.10;2.17;;;15.60;77.80;;;;;;5041382;28;20380;-74
2022/06/29 03:21:55;;;;;;;3.03;2.20;;;15.60;77.30;;;;;;5024506;28;20029;-75
2022/06/29 03:24:21;;;;;;;3.35;2.50;;;15.70;76.60;;;;;;5058576;28;20506;-74
2022/06/29 03:26:47;;;;;;;3.28;2.58;;;15.70;75.00;;;;;;5039437;28;20492;-74
2022/06/29 03:29:12;;;;;;;3.92;2.50;;;15.70;75.20;;;;;;5040894;28;20407;-74
2022/06/29 03:31:38;;;;;;;3.05;2.40;;;15.60;76.50;;;;;;5042757;28;20022;-74
2022/06/29 03:34:03;;;;;;;5.18;2.40;;;15.40;77.40;;;;;;5040349;28;20028;-75
2022/06/29 03:36:30;;;;;;;8.15;2.80;;;15.50;78.40;;;;;;5026829;28;20029;-73
2022/06/29 03:38:55;;;;;;;3.67;2.30;;;15.50;78.50;;;;;;5043021;28;20026;-75
2022/06/29 03:41:21;;;;;;;4.18;2.42;;;15.50;78.90;;;;;;5042271;28;20091;-73
2022/06/29 03:43:46;;;;;;;4.03;2.50;;;15.50;78.10;;;;;;5024344;28;20477;-73
2022/06/29 03:46:12;;;;;;;5.07;2.75;;;15.40;78.70;;;;;;5041083;28;20095;-75
2022/06/29 03:48:38;;;;;;;4.00;2.80;;;15.40;79.60;;;;;;5025267;28;20048;-76
2022/06/29 03:51:03;;;;;;;4.80;2.90;;;15.40;80.70;;;;;;5041071;28;20071;-74
2022/06/29 03:53:29;;;;;;;6.05;3.22;;;15.40;79.90;;;;;;5040126;28;20049;-74
2022/06/29 03:55:56;;;;;;;6.28;2.92;;;15.40;79.80;;;;;;5038315;28;20606;-74
2022/06/29 03:58:21;;;;;;;3.28;2.42;;;15.40;77.40;;;;;;5039291;28;20036;-73
2022/06/29 04:00:47;;;;;;;3.45;2.17;;;15.50;80.10;;;;;;5024506;28;20033;-74
2022/06/29 04:03:12;;;;;;;3.63;2.50;;;15.50;75.70;;;;;;5059805;28;20388;-75
2022/06/29 04:05:38;;;;;;;6.53;2.65;;;15.60;75.90;;;;;;5036199;28;20461;-74
2022/06/29 04:08:04;;;;;;;5.35;2.85;;;15.60;74.70;;;;;;5022758;28;20032;-73
2022/06/29 04:10:29;;;;;;;5.50;2.80;;;15.50;78.40;;;;;;5038004;28;20029;-74
2022/06/29 04:12:55;;;;;;;4.50;3.10;;;15.50;78.70;;;;;;5023281;28;20021;-74
2022/06/29 04:15:20;;;;;;;3.78;2.70;;;15.60;77.20;;;;;;5042466;28;20167;-76
2022/06/29 04:17:46;;;;;;;5.03;3.20;;;15.60;77.20;;;;;;5023055;28;20033;-74
2022/06/29 04:21:05;;;;;;;6.13;2.30;;;15.60;79.20;;;;;;5042531;28;20025;-74
2022/06/29 04:23:01;;;;;;;3.47;1.90;;;15.70;78.10;;;;;;5054374;28;20032;-74
2022/06/29 04:25:26;;;;;;;4.63;2.80;;;15.80;74.20;;;;;;5059976;28;20484;-74
2022/06/29 04:27:52;;;;;;;5.63;2.85;;;15.80;80.20;;;;;;5028906;28;20034;-74
2022/06/29 04:30:17;;;;;;;4.85;2.50;;;15.80;77.80;;;;;;5027708;28;20033;-74
2022/06/29 04:32:43;;;;;;;5.63;3.10;;;15.80;79.80;;;;;;5062668;28;20396;-74
2022/06/29 04:35:09;;;;;;;4.28;2.55;;;15.90;76.20;;;;;;5062646;28;20450;-74
2022/06/29 04:37:35;;;;;;;3.58;2.65;;;15.90;77.10;;;;;;5044900;28;20099;-74
2022/06/29 04:40:03;;;;;;;5.30;2.95;;;16.00;75.40;;;;;;5028582;28;20093;-75
2022/06/29 04:42:29;;;;;;;5.05;3.17;;;16.00;75.20;;;;;;5061398;28;20380;-74
2022/06/29 04:44:54;;;;;;;4.65;2.88;;;16.10;75.40;;;;;;5028015;28;20029;-74
2022/06/29 04:47:20;;;;;;;6.88;3.95;;;16.10;78.00;;;;;;5044637;28;20026;-75
2022/06/29 04:49:45;;;;;;;3.75;2.97;;;16.10;78.70;;;;;;5024034;28;20075;-75
2022/06/29 04:52:12;;;;;;;5.53;3.30;;;16.20;78.90;;;;;;5012393;28;20136;-74
2022/06/29 04:54:37;;;;;;;8.68;3.20;;;16.40;78.40;;;;;;5042703;28;20116;-74
2022/06/29 04:57:03;;;;;;;4.47;2.50;;;16.40;79.30;;;;;;5028142;28;20513;-74
2022/06/29 04:59:29;;;;;;;8.00;3.00;;;16.50;78.60;;;;;;5043727;28;20056;-73
2022/06/29 05:01:54;;;;;;;9.30;2.72;;;16.50;79.00;;;;;;5043509;28;20516;-73
2022/06/29 05:04:20;;;;;;;3.55;2.75;;;16.60;77.30;;;;;;5043352;28;20140;-74
2022/06/29 05:06:45;;;;;;;4.90;2.97;;;16.60;77.30;;;;;;5027611;28;20033;-74
2022/06/29 05:09:11;;;;;;;5.55;2.95;;;16.60;76.70;;;;;;5040701;28;20021;-74
2022/06/29 05:11:37;;;;;;;5.35;3.13;;;16.70;76.10;;;;;;5007257;28;20030;-76
2022/06/29 05:14:02;;;;;;;5.03;2.83;;;16.80;76.30;;;;;;5009169;28;20025;-75
2022/06/29 05:16:28;;;;;;;3.80;2.80;;;16.90;75.50;;;;;;5044875;28;20033;-75
2022/06/29 05:18:53;;;;;;;4.80;2.67;;;17.00;75.50;;;;;;5038674;28;20120;-76
2022/06/29 05:21:19;;;;;;;6.80;2.40;;;17.20;75.70;;;;;;5045100;28;20512;-75
2022/06/29 05:23:45;;;;;;;4.32;2.72;;;17.30;76.60;;;;;;5021961;28;20037;-75
2022/06/29 05:26:11;;;;;;;4.90;3.40;;;17.50;77.50;;;;;;5043021;28;20045;-75
2022/06/29 05:28:36;;;;;;;4.82;2.47;;;17.60;78.00;;;;;;5042200;28;20396;-75
2022/06/29 05:31:02;;;;;;;3.58;2.47;;;17.70;78.20;;;;;;5044253;28;20599;-76
2022/06/29 05:33:36;;;;;;;13.15;2.60;;;17.80;77.40;;;;;;5044031;28;20025;-75
2022/06/29 05:36:05;;;;;;;3.90;2.20;;;17.90;77.00;;;;;;5029648;28;20032;-75
2022/06/29 05:38:31;;;;;;;4.07;2.47;;;18.10;76.20;;;;;;5058759;28;20106;-76
2022/06/29 05:40:57;;;;;;;4.15;2.42;;;18.20;76.70;;;;;;5027638;28;20064;-76
2022/06/29 05:43:22;;;;;;;2.90;2.47;;;18.30;74.30;;;;;;5044618;28;20086;-75
2022/06/29 05:45:48;;;;;;;4.80;2.83;;;18.60;78.10;;;;;;5025485;28;20036;-76
2022/06/29 05:48:13;;;;;;;5.82;2.75;;;18.90;77.10;;;;;;5043727;28;20030;-76
2022/06/29 05:50:39;;;;;;;5.63;2.65;;;19.20;79.40;;;;;;5043362;28;20037;-74
2022/06/29 05:53:04;;;;;;;6.03;2.38;;;19.60;79.30;;;;;;5060128;28;20036;-75
2022/06/29 05:55:30;;;;;;;8.32;2.38;;;19.80;79.10;;;;;;5026300;28;20029;-75
2022/06/29 05:57:56;;;;;;;6.85;2.53;;;20.00;78.80;;;;;;5023664;28;20048;-76
2022/06/29 06:00:21;;;;;;;4.55;2.22;;;20.10;78.40;;;;;;5044834;28;20025;-75
2022/06/29 06:02:49;;;;;;;4.70;2.05;;;20.30;79.10;;;;;;5022200;28;20025;-75
2022/06/29 06:05:15;;;;;;;4.15;1.88;;;20.60;77.20;;;;;;5025987;28;20036;-75
2022/06/29 06:07:52;;;;;;;3.70;2.50;;;20.70;71.50;;;;;;5038374;28;20037;-75
2022/06/29 06:10:18;;;;;;;10.82;2.33;;;21.10;79.30;;;;;;5021415;28;20112;-76
2022/06/29 06:12:44;;;;;;;5.22;2.00;;;21.60;77.00;;;;;;5023495;28;20045;-75
2022/06/29 06:15:14;;;;;;;4.50;2.05;;;21.90;77.40;;;;;;5012855;28;20063;-76
2022/06/29 06:17:40;;;;;;;4.30;2.20;;;22.10;77.00;;;;;;5004405;28;20067;-77
2022/06/29 06:20:06;;;;;;;4.97;2.28;;;22.20;76.60;;;;;;5027840;28;20768;-76
2022/06/29 06:22:31;;;;;;;2.92;2.30;;;22.30;76.40;;;;;;5040070;28;20029;-76
2022/06/29 06:24:58;;;;;;;6.60;2.40;;;22.40;76.60;;;;;;5039400;28;20561;-75
2022/06/29 06:27:23;;;;;;;3.55;2.22;;;22.70;76.90;;;;;;5055512;28;20084;-75
2022/06/29 06:29:49;;;;;;;2.22;1.90;;;22.90;76.70;;;;;;5020715;28;20033;-76
2022/06/29 06:32:14;;;;;;;5.22;2.13;;;23.00;75.40;;;;;;5040991;28;20578;-76
2022/06/29 06:34:40;;;;;;;3.28;1.80;;;23.20;75.40;;;;;;5038506;28;20120;-76
2022/06/29 06:37:05;;;;;;;3.83;3.00;;;23.30;74.50;;;;;;5035050;28;20550;-77
2022/06/29 06:39:31;;;;;;;2.80;1.95;;;23.50;74.10;;;;;;5027461;28;20423;-77
2022/06/29 06:41:56;;;;;;;4.95;2.25;;;23.60;73.50;;;;;;5038743;28;20037;-76
2022/06/29 06:44:22;;;;;;;3.35;1.70;;;23.80;73.20;;;;;;5012577;28;20087;-76
2022/06/29 06:46:48;;;;;;;5.03;1.73;;;24.00;72.70;;;;;;5044416;28;20579;-76
2022/06/29 06:49:15;;;;;;;2.70;1.77;;;24.10;72.20;;;;;;5061660;28;20037;-76
2022/06/29 06:51:41;;;;;;;4.32;1.92;;;24.30;72.70;;;;;;5038089;28;20041;-77
2022/06/29 06:54:06;;;;;;;2.35;1.70;;;24.60;71.70;;;;;;5044318;28;20176;-77
2022/06/29 06:56:32;;;;;;;3.95;1.38;;;24.90;71.00;;;;;;5040747;28;20124;-77
2022/06/29 06:58:57;;;;;;;2.08;1.60;;;25.00;70.00;;;;;;5041863;28;20057;-77
2022/06/29 07:01:23;;;;;;;4.15;1.75;;;25.10;69.10;;;;;;5043304;28;20033;-76
2022/06/29 07:03:49;;;;;;;2.88;2.13;;;25.30;68.40;;;;;;5026707;28;20037;-76
2022/06/29 07:06:15;;;;;;;5.93;1.65;;;25.40;67.60;;;;;;5060202;28;20036;-76
2022/06/29 07:08:40;;;;;;;3.38;1.63;;;25.40;67.80;;;;;;5026082;28;20029;-77
2022/06/29 07:11:06;;;;;;;5.18;1.65;;;25.60;67.00;;;;;;5042993;28;20060;-77
2022/06/29 07:13:35;;;;;;;2.50;1.90;;;25.70;66.20;;;;;;5022855;28;20485;-78
2022/06/29 07:16:04;;;;;;;2.67;1.58;;;25.80;65.70;;;;;;5043262;28;20029;-78
2022/06/29 07:18:30;;;;;;;2.55;1.63;;;25.80;65.80;;;;;;5041020;28;20433;-78
2022/06/29 07:20:56;;;;;;;5.05;1.70;;;25.80;65.60;;;;;;5026414;28;20484;-77
2022/06/29 07:23:21;;;;;;;2.55;1.80;;;25.70;64.90;;;;;;5042324;28;20079;-77
2022/06/29 07:25:47;;;;;;;1.90;1.40;;;25.70;65.20;;;;;;5041002;28;20117;-77
2022/06/29 07:28:13;;;;;;;3.95;1.98;;;25.60;65.40;;;;;;5025548;28;20095;-75
2022/06/29 07:30:38;;;;;;;5.25;1.80;;;25.60;65.40;;;;;;5037661;28;20048;-76
2022/06/29 07:33:04;;;;;;;3.55;1.70;;;25.60;65.40;;;;;;5026242;28;20064;-77
2022/06/29 07:35:29;;;;;;;7.05;1.90;;;25.70;65.20;;;;;;5038118;28;20107;-75
2022/06/29 07:37:55;;;;;;;4.07;1.90;;;25.70;64.90;;;;;;5024686;28;20037;-76
2022/06/29 07:40:21;;;;;;;2.30;1.60;;;25.70;64.50;;;;;;5059868;28;20091;-77
2022/06/29 07:42:46;;;;;;;4.72;1.70;;;25.60;64.00;;;;;;5021770;28;20044;-76
2022/06/29 07:45:12;;;;;;;2.40;1.90;;;25.50;64.00;;;;;;5057144;28;20076;-76
2022/06/29 07:47:39;;;;;;;2.05;1.55;;;25.50;63.80;;;;;;5022692;28;20384;-75
2022/06/29 07:50:05;;;;;;;2.10;1.50;;;25.50;63.50;;;;;;5007629;28;20086;-77
2022/06/29 07:52:33;;;;;;;4.20;1.95;;;25.50;63.10;;;;;;5037456;28;20521;-76
2022/06/29 07:54:59;;;;;;;3.22;2.05;;;25.40;63.10;;;;;;5024424;28;20025;-77
2022/06/29 07:57:24;;;;;;;4.65;2.25;;;25.40;63.90;;;;;;5059839;28;20393;-76
2022/06/29 07:59:50;;;;;;;4.03;1.55;;;25.50;64.60;;;;;;5021806;28;20105;-76
2022/06/29 08:02:15;;;;;;;2.47;1.92;;;25.60;65.10;;;;;;5044373;28;20025;-78
2022/06/29 08:04:41;;;;;;;3.17;1.58;;;25.60;64.50;;;;;;5045569;28;20104;-77
2022/06/29 08:07:06;;;;;;;1.92;1.73;;;25.60;65.00;;;;;;5045974;28;20013;-77
2022/06/29 08:09:32;;;;;;;2.75;1.63;;;25.80;64.80;;;;;;5028776;28;20594;-77
2022/06/29 08:11:57;;;;;;;2.78;1.80;;;25.90;64.70;;;;;;5027005;28;20025;-78
2022/06/29 08:14:23;;;;;;;3.08;2.05;;;26.00;64.60;;;;;;5045494;28;20577;-77
2022/06/29 08:16:49;;;;;;;3.85;1.80;;;26.00;64.70;;;;;;5029294;28;20041;-77
2022/06/29 08:19:14;;;;;;;2.67;1.85;;;25.90;64.50;;;;;;5026874;28;20021;-77
2022/06/29 08:21:40;;;;;;;3.58;1.77;;;26.00;64.80;;;;;;5029912;28;20118;-78
2022/06/29 08:24:05;;;;;;;153.15;20.25;;;26.00;64.60;;;;;;5062452;28;20025;-77
2022/06/29 08:26:31;;;;;;;8.98;3.80;;;26.00;64.40;;;;;;5028616;28;20044;-77
2022/06/29 08:28:57;;;;;;;9.93;2.20;;;26.00;64.60;;;;;;5023094;28;20032;-77
2022/06/29 08:31:22;;;;;;;4.70;2.25;;;26.10;64.10;;;;;;5059905;28;20024;-76
2022/06/29 08:33:48;;;;;;;3.38;2.10;;;26.10;64.20;;;;;;5058559;28;20179;-75
2022/06/29 08:36:13;;;;;;;3.65;2.00;;;26.20;63.90;;;;;;5026580;28;20111;-77
2022/06/29 08:38:39;;;;;;;3.95;1.80;;;26.20;63.80;;;;;;5027458;28;20033;-76
2022/06/29 08:41:05;;;;;;;6.85;2.05;;;26.20;64.00;;;;;;5016078;28;20072;-76
2022/06/29 08:43:31;;;;;;;2.33;1.58;;;26.40;63.60;;;;;;5000133;28;20056;-78
2022/06/29 08:45:57;;;;;;;4.28;1.83;;;26.30;63.50;;;;;;5041913;28;20029;-76
2022/06/29 08:48:23;;;;;;;4.78;1.75;;;26.40;63.50;;;;;;5044524;28;20075;-76
2022/06/29 08:50:52;;;;;;;5.32;2.00;;;26.50;63.30;;;;;;5021284;28;20044;-76
2022/06/29 08:53:18;;;;;;;3.70;1.77;;;26.60;63.10;;;;;;5046701;28;20124;-75
2022/06/29 08:55:45;;;;;;;4.97;1.85;;;26.70;62.90;;;;;;5043208;28;20624;-76
2022/06/29 08:58:27;;;;;;;3.55;2.15;;;26.70;62.50;;;;;;5044803;28;20060;-76
2022/06/29 09:00:53;;;;;;;6.15;2.00;;;26.80;62.70;;;;;;5041981;28;20042;-77
2022/06/29 09:03:19;;;;;;;2.72;1.70;;;26.90;62.50;;;;;;5045798;28;20036;-78
2022/06/29 09:05:48;;;;;;;3.78;2.45;;;26.90;62.00;;;;;;5039777;28;20033;-77
2022/06/29 09:08:15;;;;;;;4.47;1.80;;;27.00;61.60;;;;;;5043273;28;20026;-75
2022/06/29 09:10:41;;;;;;;6.28;2.10;;;27.10;61.40;;;;;;5043433;28;20029;-76
2022/06/29 09:13:08;;;;;;;3.97;1.92;;;27.20;61.10;;;;;;5060211;28;20641;-75
2022/06/29 09:15:41;;;;;;;9.15;1.60;;;27.10;60.90;;;;;;5045374;28;20132;-75
2022/06/29 09:18:41;;;;;;;3.90;1.80;;;27.10;60.60;;;;;;5028375;28;20043;-75
2022/06/29 09:21:07;;;;;;;4.20;1.65;;;27.20;60.30;;;;;;4984846;28;20117;-75
2022/06/29 09:23:34;;;;;;;3.63;2.10;;;27.20;59.80;;;;;;5002381;28;20124;-75
2022/06/29 09:26:01;;;;;;;1.80;1.60;;;27.20;60.20;;;;;;5011464;28;20453;-75
2022/06/29 09:28:31;;;;;;;5.07;2.35;;;27.20;59.90;;;;;;5059034;28;20416;-75
2022/06/29 09:30:57;;;;;;;2.53;2.20;;;27.20;60.90;;;;;;5043556;28;20091;-76
2022/06/29 09:33:28;;;;;;;2.13;1.52;;;27.20;60.30;;;;;;5042430;28;20028;-74
2022/06/29 09:36:11;;;;;;;4.55;1.92;;;27.20;60.30;;;;;;5019260;28;20057;-75
2022/06/29 09:38:36;;;;;;;3.65;2.13;;;27.20;60.60;;;;;;5042057;28;20037;-75
2022/06/29 09:41:12;;;;;;;2.88;1.60;;;27.30;60.30;;;;;;5041086;28;20040;-77
2022/06/29 09:43:42;;;;;;;3.72;1.30;;;27.30;59.90;;;;;;5035305;28;20088;-76
2022/06/29 09:46:09;;;;;;;2.53;1.50;;;27.30;59.60;;;;;;5037905;28;20558;-75
2022/06/29 09:48:35;;;;;;;4.32;2.03;;;27.20;59.40;;;;;;5044868;28;20028;-75
2022/06/29 09:51:01;;;;;;;1.90;1.80;;;27.20;59.60;;;;;;5009109;28;20047;-76
2022/06/29 09:53:37;;;;;;;2.45;1.90;;;27.20;59.60;;;;;;5059731;28;20422;-77
2022/06/29 09:56:04;;;;;;;5.35;2.75;;;27.20;59.70;;;;;;5044185;28;20032;-75
2022/06/29 09:58:45;;;;;;;7.25;2.50;;;27.40;59.70;;;;;;5028733;28;20445;-76
2022/06/29 10:03:56;;;;;;;4.33;2.27;;;27.70;59.60;;;;;;5029527;28;20032;-75
2022/06/29 10:06:22;;;;;;;6.47;2.03;;;27.90;59.70;;;;;;5042865;28;20482;-74
2022/06/29 10:08:48;;;;;;;3.10;1.80;;;28.00;59.80;;;;;;5022221;28;20033;-75
2022/06/29 10:14:36;;;;;;;7.65;3.08;;;28.20;60.00;;;;;;5037189;28;20124;-74
2022/06/29 10:17:20;;;;;;;8.07;2.35;;;28.50;60.10;;;;;;5021084;28;20029;-74
2022/06/29 10:20:00;;;;;;;4.45;1.77;;;28.70;60.10;;;;;;5038250;28;20029;-74
2022/06/29 10:22:28;;;;;;;7.28;2.17;;;28.90;59.80;;;;;;5042784;28;20496;-75
2022/06/29 10:25:04;;;;;;;3.80;2.38;;;28.90;59.70;;;;;;5041092;28;20021;-74
2022/06/29 10:27:30;;;;;;;;;;;29.20;58.90;;;;;;5058689;28;20031;-74
2022/06/29 10:30:24;;;;;;;5.88;2.10;;;29.40;59.00;;;;;;5026459;28;20283;-74
2022/06/29 10:33:10;;;;;;;7.85;3.17;;;29.60;58.40;;;;;;5039287;28;20022;-75
2022/06/29 10:36:06;;;;;;;3.58;2.25;;;29.70;58.20;;;;;;5001749;28;20043;-76
2022/06/29 10:38:47;;;;;;;2.90;2.00;;;29.90;58.20;;;;;;5045787;28;20029;-76
2022/06/29 10:43:57;;;;;;;6.57;3.00;;;30.00;57.00;;;;;;5039575;28;20036;-75
2022/06/29 10:46:23;;;;;;;7.13;2.17;;;30.10;57.70;;;;;;5042880;28;21029;-75
2022/06/29 10:49:19;;;;;;;2.90;1.95;;;30.30;57.10;;;;;;5023163;28;20045;-75
2022/06/29 10:51:46;;;;;;;1.75;1.65;;;30.60;56.80;;;;;;5019517;28;20044;-74
2022/06/29 10:54:29;;;;;;;2.33;2.03;;;30.60;57.00;;;;;;5005827;28;20395;-75
2022/06/29 10:56:55;;;;;;;3.25;2.08;;;30.70;56.50;;;;;;5039598;28;20025;-74
2022/06/29 10:59:33;;;;;;;2.88;1.60;;;30.90;56.40;;;;;;5042302;28;20036;-75
2022/06/29 11:02:15;;;;;;;2.70;2.03;;;31.00;56.40;;;;;;5023579;28;20071;-74
2022/06/29 11:04:42;;;;;;;6.30;2.50;;;31.30;56.00;;;;;;5023050;28;20136;-75
2022/06/29 11:12:54;;;;;;;2.63;1.88;;;31.40;54.10;;;;;;5035447;28;20048;-74
2022/06/29 11:18:18;;;;;;;4.75;2.10;;;31.50;54.00;;;;;;5040733;28;20148;-74
2022/06/29 11:20:44;;;;;;;2.97;2.55;;;31.60;53.20;;;;;;5022129;28;20412;-74
2022/06/29 11:23:12;;;;;;;3.90;2.08;;;31.70;54.20;;;;;;5038316;28;20037;-75
2022/06/29 11:25:38;;;;;;;3.08;2.35;;;31.50;54.30;;;;;;5021192;28;20045;-75
2022/06/29 11:28:04;;;;;;;3.20;2.10;;;31.90;52.80;;;;;;5008963;28;20036;-75
2022/06/29 11:30:29;;;;;;;2.72;2.13;;;32.00;53.30;;;;;;5037753;28;20033;-75
2022/06/29 11:32:55;;;;;;;2.30;2.05;;;32.30;53.50;;;;;;5026171;28;20025;-76
2022/06/29 11:35:22;;;;;;;6.13;2.30;;;32.30;53.30;;;;;;5058802;28;20481;-75
2022/06/29 11:37:51;;;;;;;2.97;2.60;;;32.80;53.30;;;;;;5058638;28;20033;-75
2022/06/29 11:40:35;;;;;;;5.47;2.67;;;33.10;52.90;;;;;;5042354;28;20481;-75
2022/06/29 11:43:05;;;;;;;4.22;2.13;;;33.40;52.20;;;;;;5042645;28;20028;-80
2022/06/29 11:45:37;;;;;;;5.90;2.53;;;33.40;52.60;;;;;;5055926;28;20033;-80
2022/06/29 11:48:10;;;;;;;4.65;2.50;;;33.50;53.00;;;;;;5056139;28;20040;-79
2022/06/29 11:50:51;;;;;;;9.82;2.70;;;33.90;52.10;;;;;;5040104;28;20395;-80
2022/06/29 11:53:39;;;;;;;3.63;2.47;;;34.10;51.20;;;;;;5023421;28;20030;-80
2022/06/29 11:56:09;;;;;;;2.95;2.30;;;34.10;50.40;;;;;;5022889;28;20055;-80
2022/06/29 11:58:35;;;;;;;5.97;2.65;;;34.20;50.90;;;;;;5042843;28;20032;-79
2022/06/29 12:01:00;;;;;;;2.53;1.95;;;34.20;49.10;;;;;;5017951;28;20032;-79
2022/06/29 12:03:26;;;;;;;2.92;2.38;;;34.20;50.20;;;;;;5021264;28;20056;-78
2022/06/29 12:05:56;;;;;;;7.85;3.28;;;34.20;49.90;;;;;;5024676;28;20029;-79
2022/06/29 12:08:22;;;;;;;3.28;1.75;;;34.40;49.40;;;;;;5058881;28;20029;-78
2022/06/29 12:10:47;;;;;;;3.85;2.08;;;34.30;50.00;;;;;;5021765;28;20029;-80
2022/06/29 12:13:13;;;;;;;6.32;2.60;;;34.40;49.00;;;;;;5056154;28;20030;-79
2022/06/29 12:15:38;;;;;;;5.85;2.60;;;34.70;48.50;;;;;;5024460;28;20030;-79
2022/06/29 12:18:04;;;;;;;5.70;2.40;;;35.00;47.70;;;;;;5028236;28;20159;-78
2022/06/29 12:20:29;;;;;;;3.78;2.60;;;35.20;47.10;;;;;;5060384;28;20119;-78
2022/06/29 12:22:55;;;;;;;3.30;2.58;;;35.20;46.90;;;;;;5040242;28;20264;-78
2022/06/29 12:25:22;;;;;;;2.67;2.22;;;35.10;46.20;;;;;;5062833;28;20033;-78
2022/06/29 12:27:48;;;;;;;5.85;2.53;;;35.10;46.90;;;;;;5046177;28;20033;-79
2022/06/29 12:30:14;;;;;;;3.60;2.20;;;35.20;46.90;;;;;;5041280;28;20117;-79
2022/06/29 12:32:39;;;;;;;3.85;2.30;;;35.00;47.50;;;;;;5040731;28;20033;-79
2022/06/29 12:35:06;;;;;;;5.53;2.30;;;35.30;47.40;;;;;;5022853;28;20040;-79
2022/06/29 12:37:31;;;;;;;3.83;2.30;;;35.80;46.90;;;;;;5039314;28;20465;-79
2022/06/29 12:39:57;;;;;;;3.45;2.80;;;36.00;45.70;;;;;;5025974;28;20052;-80
2022/06/29 12:42:22;;;;;;;3.90;2.53;;;36.20;44.40;;;;;;5059179;28;20514;-80
2022/06/29 12:44:48;;;;;;;3.90;2.30;;;36.30;45.80;;;;;;5041829;28;20056;-80
2022/06/29 12:47:14;;;;;;;4.00;3.42;;;36.50;45.40;;;;;;5040588;28;20037;-80
2022/06/29 12:49:39;;;;;;;3.78;2.10;;;36.80;43.80;;;;;;5025268;28;20112;-80
2022/06/29 12:52:05;;;;;;;2.33;2.05;;;37.00;42.30;;;;;;5005301;28;20026;-79
2022/06/29 12:54:31;;;;;;;2.50;2.30;;;37.10;41.60;;;;;;5027111;28;20059;-79
2022/06/29 12:56:56;;;;;;;3.42;2.10;;;37.30;41.60;;;;;;5036563;28;20028;-80
2022/06/29 12:59:22;;;;;;;2.50;2.30;;;37.10;43.20;;;;;;5041150;28;20488;-81
2022/06/29 13:01:47;;;;;;;2.30;2.10;;;37.40;40.80;;;;;;5058279;28;20041;-80
2022/06/29 13:04:13;;;;;;;2.40;2.00;;;37.20;42.10;;;;;;5062138;28;20033;-81
2022/06/29 13:06:39;;;;;;;4.30;2.20;;;37.40;41.70;;;;;;5042289;28;20060;-78
2022/06/29 13:09:05;;;;;;;3.50;2.20;;;37.30;41.30;;;;;;5006670;28;20510;-79